sensor_id;sensor_type;location;lat;lon;timestamp;pressure;altitude;pressure_sealevel;temperature;humidity
77159;BME280;66129;45.890;13.714;2023-07-31T00:01:24;100734.16;;;20.22;100.00
77159;BME280;66129;45.890;13.714;2023-07-31T00:03:50;100743.66;;;20.24;100.00
77159;BME280;66129;45.890;13.714;2023-07-31T00:06:15;100727.41;;;20.14;100.00
77159;BME280;66129;45.890;13.714;2023-07-31T00:08:41;100731.63;;;20.19;100.00
77159;BME280;66129;45.890;13.714;2023-07-31T00:11:06;100730.84;;;20.14;100.00
77159;BME280;66129;45.890;13.714;2023-07-31T00:13:32;100721.53;;;20.04;100.00
77159;BME280;66129;45.890;13.714;2023-07-31T00:15:57;100718.09;;;20.02;100.00
77159;BME280;66129;45.890;13.714;2023-07-31T00:18:22;100719.75;;;20.06;100.00
77159;BME280;66129;45.890;13.714;2023-07-31T00:20:48;100717.38;;;19.93;100.00
77159;BME280;66129;45.890;13.714;2023-07-31T00:23:13;100725.16;;;19.94;100.00
77159;BME280;66129;45.890;13.714;2023-07-31T00:25:39;100738.22;;;19.93;100.00
77159;BME280;66129;45.890;13.714;2023-07-31T00:28:05;100733.09;;;19.87;100.00
77159;BME280;66129;45.890;13.714;2023-07-31T00:30:30;100733.91;;;19.90;100.00
77159;BME280;66129;45.890;13.714;2023-07-31T00:32:55;100732.16;;;19.91;100.00
77159;BME280;66129;45.890;13.714;2023-07-31T00:35:21;100737.38;;;19.89;100.00
77159;BME280;66129;45.890;13.714;2023-07-31T00:37:46;100743.41;;;19.93;100.00
77159;BME280;66129;45.890;13.714;2023-07-31T00:40:12;100737.44;;;19.86;100.00
77159;BME280;66129;45.890;13.714;2023-07-31T00:42:39;100742.63;;;19.86;100.00
77159;BME280;66129;45.890;13.714;2023-07-31T00:45:05;100720.31;;;19.75;100.00
77159;BME280;66129;45.890;13.714;2023-07-31T00:47:30;100735.91;;;19.76;100.00
77159;BME280;66129;45.890;13.714;2023-07-31T00:49:56;100723.84;;;19.72;100.00
77159;BME280;66129;45.890;13.714;2023-07-31T00:52:22;100723.91;;;19.69;100.00
77159;BME280;66129;45.890;13.714;2023-07-31T00:54:49;100724.72;;;19.71;100.00
77159;BME280;66129;45.890;13.714;2023-07-31T00:57:15;100724.72;;;19.71;100.00
77159;BME280;66129;45.890;13.714;2023-07-31T00:59:40;100724.69;;;19.73;100.00
77159;BME280;66129;45.890;13.714;2023-07-31T01:02:06;100724.69;;;19.73;100.00
77159;BME280;66129;45.890;13.714;2023-07-31T01:04:32;100741.94;;;19.78;100.00
77159;BME280;66129;45.890;13.714;2023-07-31T01:09:49;100744.59;;;19.75;100.00
77159;BME280;66129;45.890;13.714;2023-07-31T01:12:19;100737.84;;;19.65;100.00
77159;BME280;66129;45.890;13.714;2023-07-31T01:17:26;100749.94;;;19.66;100.00
77159;BME280;66129;45.890;13.714;2023-07-31T01:19:52;100751.78;;;19.61;100.00
77159;BME280;66129;45.890;13.714;2023-07-31T01:25:08;100737.94;;;19.61;100.00
77159;BME280;66129;45.890;13.714;2023-07-31T01:27:53;100737.03;;;19.62;100.00
77159;BME280;66129;45.890;13.714;2023-07-31T01:30:21;100756.81;;;19.70;100.00
77159;BME280;66129;45.890;13.714;2023-07-31T01:32:48;100737.06;;;19.60;100.00
77159;BME280;66129;45.890;13.714;2023-07-31T01:35:14;100748.31;;;19.61;100.00
77159;BME280;66129;45.890;13.714;2023-07-31T01:37:40;100744.00;;;19.60;100.00
77159;BME280;66129;45.890;13.714;2023-07-31T01:40:06;100755.78;;;19.79;100.00
77159;BME280;66129;45.890;13.714;2023-07-31T01:42:32;100752.22;;;19.86;100.00
77159;BME280;66129;45.890;13.714;2023-07-31T01:44:57;100754.66;;;19.93;100.00
77159;BME280;66129;45.890;13.714;2023-07-31T01:47:23;100750.22;;;20.00;100.00
77159;BME280;66129;45.890;13.714;2023-07-31T01:49:49;100756.19;;;20.06;100.00
77159;BME280;66129;45.890;13.714;2023-07-31T01:52:14;100757.75;;;20.15;100.00
77159;BME280;66129;45.890;13.714;2023-07-31T01:54:40;100758.44;;;20.24;100.00
77159;BME280;66129;45.890;13.714;2023-07-31T01:57:05;100766.03;;;20.34;100.00
77159;BME280;66129;45.890;13.714;2023-07-31T01:59:31;100758.09;;;20.40;100.00
77159;BME280;66129;45.890;13.714;2023-07-31T02:01:56;100769.34;;;20.42;100.00
77159;BME280;66129;45.890;13.714;2023-07-31T02:04:22;100767.63;;;20.40;100.00
77159;BME280;66129;45.890;13.714;2023-07-31T02:06:47;100771.00;;;20.45;100.00
77159;BME280;66129;45.890;13.714;2023-07-31T02:09:13;100771.94;;;20.42;100.00
77159;BME280;66129;45.890;13.714;2023-07-31T02:11:38;100766.84;;;20.38;100.00
77159;BME280;66129;45.890;13.714;2023-07-31T02:14:04;100767.75;;;20.35;100.00
77159;BME280;66129;45.890;13.714;2023-07-31T02:16:29;100774.06;;;20.24;100.00
77159;BME280;66129;45.890;13.714;2023-07-31T02:18:55;100775.16;;;20.11;100.00
77159;BME280;66129;45.890;13.714;2023-07-31T02:21:20;100776.28;;;19.97;100.00
77159;BME280;66129;45.890;13.714;2023-07-31T02:23:45;100774.66;;;19.91;100.00
77159;BME280;66129;45.890;13.714;2023-07-31T02:26:11;100782.34;;;19.97;100.00
77159;BME280;66129;45.890;13.714;2023-07-31T02:28:36;100780.47;;;20.07;100.00
77159;BME280;66129;45.890;13.714;2023-07-31T02:31:02;100787.75;;;20.33;100.00
77159;BME280;66129;45.890;13.714;2023-07-31T02:33:28;100779.09;;;20.31;100.00
77159;BME280;66129;45.890;13.714;2023-07-31T02:35:53;100798.09;;;20.38;100.00
77159;BME280;66129;45.890;13.714;2023-07-31T02:38:18;100779.38;;;20.18;100.00
77159;BME280;66129;45.890;13.714;2023-07-31T02:40:44;100780.50;;;20.05;100.00
77159;BME280;66129;45.890;13.714;2023-07-31T02:43:09;100778.03;;;19.96;100.00
77159;BME280;66129;45.890;13.714;2023-07-31T02:45:35;100786.47;;;20.10;100.00
77159;BME280;66129;45.890;13.714;2023-07-31T02:48:00;100773.22;;;20.22;100.00
77159;BME280;66129;45.890;13.714;2023-07-31T02:50:26;100778.81;;;20.45;99.68
77159;BME280;66129;45.890;13.714;2023-07-31T02:52:53;100772.38;;;20.64;99.06
77159;BME280;66129;45.890;13.714;2023-07-31T02:55:18;100760.75;;;20.78;96.83
77159;BME280;66129;45.890;13.714;2023-07-31T02:57:43;100761.84;;;21.08;93.41
77159;BME280;66129;45.890;13.714;2023-07-31T03:00:09;100768.84;;;21.42;90.43
77159;BME280;66129;45.890;13.714;2023-07-31T03:02:35;100759.63;;;21.64;88.36
77159;BME280;66129;45.890;13.714;2023-07-31T03:05:00;100775.63;;;21.84;86.42
77159;BME280;66129;45.890;13.714;2023-07-31T03:07:26;100765.97;;;21.87;86.17
77159;BME280;66129;45.890;13.714;2023-07-31T03:09:51;100763.94;;;21.98;85.47
77159;BME280;66129;45.890;13.714;2023-07-31T03:12:17;100766.75;;;22.21;84.04
77159;BME280;66129;45.890;13.714;2023-07-31T03:14:42;100764.88;;;22.26;83.64
77159;BME280;66129;45.890;13.714;2023-07-31T03:17:07;100762.16;;;22.31;83.18
77159;BME280;66129;45.890;13.714;2023-07-31T03:19:33;100758.56;;;22.35;83.11
77159;BME280;66129;45.890;13.714;2023-07-31T03:21:59;100767.34;;;22.32;83.71
77159;BME280;66129;45.890;13.714;2023-07-31T03:24:25;100754.72;;;22.17;84.16
77159;BME280;66129;45.890;13.714;2023-07-31T03:26:51;100772.63;;;22.31;83.21
77159;BME280;66129;45.890;13.714;2023-07-31T03:29:16;100758.00;;;22.24;83.78
77159;BME280;66129;45.890;13.714;2023-07-31T03:31:41;100765.63;;;22.31;82.17
77159;BME280;66129;45.890;13.714;2023-07-31T03:34:07;100769.09;;;22.32;82.21
77159;BME280;66129;45.890;13.714;2023-07-31T03:36:33;100756.88;;;22.32;81.89
77159;BME280;66129;45.890;13.714;2023-07-31T03:38:58;100766.25;;;22.41;80.26
77159;BME280;66129;45.890;13.714;2023-07-31T03:41:23;100761.06;;;22.39;79.71
77159;BME280;66129;45.890;13.714;2023-07-31T03:43:51;100759.38;;;22.37;79.70
77159;BME280;66129;45.890;13.714;2023-07-31T03:46:17;100759.91;;;22.49;78.03
77159;BME280;66129;45.890;13.714;2023-07-31T03:48:43;100763.44;;;22.48;77.74
77159;BME280;66129;45.890;13.714;2023-07-31T03:51:08;100767.72;;;22.50;77.64
77159;BME280;66129;45.890;13.714;2023-07-31T03:53:33;100763.28;;;22.52;76.89
77159;BME280;66129;45.890;13.714;2023-07-31T03:55:59;100769.44;;;22.50;77.62
77159;BME280;66129;45.890;13.714;2023-07-31T03:58:24;100765.31;;;22.43;77.14
77159;BME280;66129;45.890;13.714;2023-07-31T04:00:50;100767.72;;;22.49;76.62
77159;BME280;66129;45.890;13.714;2023-07-31T04:03:15;100758.81;;;22.56;75.45
77159;BME280;66129;45.890;13.714;2023-07-31T04:05:41;100761.34;;;22.59;74.91
77159;BME280;66129;45.890;13.714;2023-07-31T04:08:06;100764.06;;;22.56;74.74
77159;BME280;66129;45.890;13.714;2023-07-31T04:10:31;100776.13;;;22.60;74.55
77159;BME280;66129;45.890;13.714;2023-07-31T04:12:59;100769.09;;;22.62;73.25
77159;BME280;66129;45.890;13.714;2023-07-31T04:15:25;100781.22;;;22.64;73.34
77159;BME280;66129;45.890;13.714;2023-07-31T04:17:50;100770.06;;;22.59;73.43
77159;BME280;66129;45.890;13.714;2023-07-31T04:20:16;100776.91;;;22.63;72.51
77159;BME280;66129;45.890;13.714;2023-07-31T04:22:42;100777.59;;;22.70;72.76
77159;BME280;66129;45.890;13.714;2023-07-31T04:25:07;100774.06;;;22.71;72.22
77159;BME280;66129;45.890;13.714;2023-07-31T04:27:33;100778.06;;;22.82;71.94
77159;BME280;66129;45.890;13.714;2023-07-31T04:29:58;100765.31;;;23.01;70.95
77159;BME280;66129;45.890;13.714;2023-07-31T04:32:24;100757.56;;;23.25;69.42
77159;BME280;66129;45.890;13.714;2023-07-31T04:34:49;100758.28;;;23.56;68.27
77159;BME280;66129;45.890;13.714;2023-07-31T04:37:15;100758.69;;;23.70;66.77
77159;BME280;66129;45.890;13.714;2023-07-31T04:39:40;100769.16;;;23.96;66.10
77159;BME280;66129;45.890;13.714;2023-07-31T04:42:06;100759.97;;;24.09;65.43
77159;BME280;66129;45.890;13.714;2023-07-31T04:44:31;100766.13;;;24.31;65.00
77159;BME280;66129;45.890;13.714;2023-07-31T04:46:57;100768.97;;;24.49;64.32
77159;BME280;66129;45.890;13.714;2023-07-31T04:49:22;100753.34;;;24.46;64.24
77159;BME280;66129;45.890;13.714;2023-07-31T04:51:48;100764.19;;;24.60;64.21
77159;BME280;66129;45.890;13.714;2023-07-31T04:54:13;100771.38;;;24.78;63.32
77159;BME280;66129;45.890;13.714;2023-07-31T04:56:40;100764.72;;;24.91;62.27
77159;BME280;66129;45.890;13.714;2023-07-31T04:59:06;100762.84;;;24.94;62.08
77159;BME280;66129;45.890;13.714;2023-07-31T05:01:31;100759.56;;;25.11;61.49
77159;BME280;66129;45.890;13.714;2023-07-31T05:03:57;100762.13;;;25.12;61.43
77159;BME280;66129;45.890;13.714;2023-07-31T05:06:22;100774.59;;;25.29;61.52
77159;BME280;66129;45.890;13.714;2023-07-31T05:08:48;100780.97;;;25.45;60.41
77159;BME280;66129;45.890;13.714;2023-07-31T05:11:13;100774.41;;;25.55;59.63
77159;BME280;66129;45.890;13.714;2023-07-31T05:13:39;100770.81;;;25.77;59.23
77159;BME280;66129;45.890;13.714;2023-07-31T05:16:04;100766.81;;;25.90;59.17
77159;BME280;66129;45.890;13.714;2023-07-31T05:18:30;100767.25;;;25.99;58.43
77159;BME280;66129;45.890;13.714;2023-07-31T05:20:55;100778.94;;;26.12;57.85
77159;BME280;66129;45.890;13.714;2023-07-31T05:23:21;100786.47;;;26.40;57.39
77159;BME280;66129;45.890;13.714;2023-07-31T05:25:46;100775.94;;;26.40;56.77
77159;BME280;66129;45.890;13.714;2023-07-31T05:28:12;100772.66;;;26.55;56.68
77159;BME280;66129;45.890;13.714;2023-07-31T05:30:38;100786.81;;;26.71;55.17
77159;BME280;66129;45.890;13.714;2023-07-31T05:33:03;100798.56;;;26.82;55.35
77159;BME280;66129;45.890;13.714;2023-07-31T05:35:29;100781.47;;;26.91;54.02
77159;BME280;66129;45.890;13.714;2023-07-31T05:37:54;100777.94;;;27.10;55.09
77159;BME280;66129;45.890;13.714;2023-07-31T05:40:20;100784.09;;;27.46;53.32
77159;BME280;66129;45.890;13.714;2023-07-31T05:42:45;100781.94;;;27.54;52.95
77159;BME280;66129;45.890;13.714;2023-07-31T05:45:11;100776.44;;;27.58;51.70
77159;BME280;66129;45.890;13.714;2023-07-31T05:47:38;100789.47;;;27.78;50.75
77159;BME280;66129;45.890;13.714;2023-07-31T05:50:03;100792.38;;;28.08;51.30
77159;BME280;66129;45.890;13.714;2023-07-31T05:52:29;100792.28;;;27.92;52.07
77159;BME280;66129;45.890;13.714;2023-07-31T05:54:54;100782.69;;;27.91;49.54
77159;BME280;66129;45.890;13.714;2023-07-31T05:57:20;100780.41;;;28.18;49.70
77159;BME280;66129;45.890;13.714;2023-07-31T05:59:45;100781.03;;;28.39;49.51
77159;BME280;66129;45.890;13.714;2023-07-31T06:02:11;100782.44;;;28.62;48.21
77159;BME280;66129;45.890;13.714;2023-07-31T06:04:36;100771.53;;;28.68;47.11
77159;BME280;66129;45.890;13.714;2023-07-31T06:07:02;100773.50;;;28.64;46.90
77159;BME280;66129;45.890;13.714;2023-07-31T06:09:28;100777.91;;;29.12;45.73
77159;BME280;66129;45.890;13.714;2023-07-31T06:11:54;100779.69;;;29.42;45.51
77159;BME280;66129;45.890;13.714;2023-07-31T06:14:19;100777.19;;;29.84;44.64
77159;BME280;66129;45.890;13.714;2023-07-31T06:16:45;100774.44;;;29.71;44.50
77159;BME280;66129;45.890;13.714;2023-07-31T06:19:10;100773.41;;;30.03;44.49
77159;BME280;66129;45.890;13.714;2023-07-31T06:21:36;100793.72;;;29.87;43.81
77159;BME280;66129;45.890;13.714;2023-07-31T06:24:07;100785.00;;;30.01;43.93
77159;BME280;66129;45.890;13.714;2023-07-31T06:26:33;100776.56;;;29.94;44.17
77159;BME280;66129;45.890;13.714;2023-07-31T06:28:58;100781.59;;;29.99;44.19
77159;BME280;66129;45.890;13.714;2023-07-31T06:31:24;100780.69;;;29.84;43.87
77159;BME280;66129;45.890;13.714;2023-07-31T06:33:51;100780.00;;;29.67;44.38
77159;BME280;66129;45.890;13.714;2023-07-31T06:36:16;100782.84;;;29.78;44.24
77159;BME280;66129;45.890;13.714;2023-07-31T06:38:41;100777.03;;;29.87;43.31
77159;BME280;66129;45.890;13.714;2023-07-31T06:41:07;100787.38;;;29.76;43.58
77159;BME280;66129;45.890;13.714;2023-07-31T06:43:32;100789.75;;;30.10;42.66
77159;BME280;66129;45.890;13.714;2023-07-31T06:46:04;100784.78;;;29.90;43.57
77159;BME280;66129;45.890;13.714;2023-07-31T06:48:30;100772.78;;;29.69;44.64
77159;BME280;66129;45.890;13.714;2023-07-31T06:50:55;100784.75;;;30.19;43.69
77159;BME280;66129;45.890;13.714;2023-07-31T06:53:20;100778.34;;;30.51;42.90
77159;BME280;66129;45.890;13.714;2023-07-31T06:55:46;100790.56;;;30.81;41.51
77159;BME280;66129;45.890;13.714;2023-07-31T06:58:13;100783.25;;;30.99;42.00
77159;BME280;66129;45.890;13.714;2023-07-31T07:00:38;100783.56;;;30.80;42.11
77159;BME280;66129;45.890;13.714;2023-07-31T07:03:04;100781.03;;;30.65;41.91
77159;BME280;66129;45.890;13.714;2023-07-31T07:05:29;100788.03;;;30.52;41.81
77159;BME280;66129;45.890;13.714;2023-07-31T07:07:55;100793.41;;;30.65;42.99
77159;BME280;66129;45.890;13.714;2023-07-31T07:10:20;100792.03;;;30.99;41.20
77159;BME280;66129;45.890;13.714;2023-07-31T07:12:46;100787.34;;;30.76;42.19
77159;BME280;66129;45.890;13.714;2023-07-31T07:15:11;100781.88;;;30.79;41.82
77159;BME280;66129;45.890;13.714;2023-07-31T07:17:37;100790.38;;;30.84;41.90
77159;BME280;66129;45.890;13.714;2023-07-31T07:20:03;100786.97;;;30.82;42.02
77159;BME280;66129;45.890;13.714;2023-07-31T07:22:29;100781.63;;;30.96;42.42
77159;BME280;66129;45.890;13.714;2023-07-31T07:24:54;100794.25;;;31.33;41.67
77159;BME280;66129;45.890;13.714;2023-07-31T07:27:20;100789.22;;;31.43;41.12
77159;BME280;66129;45.890;13.714;2023-07-31T07:29:46;100789.25;;;31.55;40.67
77159;BME280;66129;45.890;13.714;2023-07-31T07:32:12;100790.78;;;31.33;40.70
77159;BME280;66129;45.890;13.714;2023-07-31T07:34:38;100795.00;;;31.35;40.80
77159;BME280;66129;45.890;13.714;2023-07-31T07:37:03;100795.22;;;31.32;41.21
77159;BME280;66129;45.890;13.714;2023-07-31T07:39:29;100798.25;;;31.26;40.96
77159;BME280;66129;45.890;13.714;2023-07-31T07:41:54;100795.19;;;31.46;40.21
77159;BME280;66129;45.890;13.714;2023-07-31T07:44:20;100810.03;;;31.08;41.55
77159;BME280;66129;45.890;13.714;2023-07-31T07:46:45;100802.97;;;31.35;39.92
77159;BME280;66129;45.890;13.714;2023-07-31T07:49:11;100797.31;;;31.54;40.48
77159;BME280;66129;45.890;13.714;2023-07-31T07:51:36;100811.44;;;31.81;40.32
77159;BME280;66129;45.890;13.714;2023-07-31T07:54:02;100803.63;;;31.65;38.50
77159;BME280;66129;45.890;13.714;2023-07-31T07:56:27;100807.72;;;31.95;39.97
77159;BME280;66129;45.890;13.714;2023-07-31T07:58:54;100801.13;;;31.76;39.62
77159;BME280;66129;45.890;13.714;2023-07-31T08:01:19;100813.63;;;32.13;39.55
77159;BME280;66129;45.890;13.714;2023-07-31T08:03:45;100815.78;;;31.82;38.65
77159;BME280;66129;45.890;13.714;2023-07-31T08:06:11;100825.47;;;31.95;38.73
77159;BME280;66129;45.890;13.714;2023-07-31T08:08:37;100813.41;;;31.51;39.63
77159;BME280;66129;45.890;13.714;2023-07-31T08:11:03;100820.19;;;32.07;39.40
77159;BME280;66129;45.890;13.714;2023-07-31T08:13:29;100817.31;;;32.10;39.13
77159;BME280;66129;45.890;13.714;2023-07-31T08:15:55;100824.78;;;32.30;39.92
77159;BME280;66129;45.890;13.714;2023-07-31T08:18:20;100828.31;;;32.18;39.01
77159;BME280;66129;45.890;13.714;2023-07-31T08:20:46;100827.44;;;32.43;38.14
77159;BME280;66129;45.890;13.714;2023-07-31T08:23:12;100832.53;;;32.33;39.06
77159;BME280;66129;45.890;13.714;2023-07-31T08:25:37;100830.13;;;31.91;39.01
77159;BME280;66129;45.890;13.714;2023-07-31T08:28:04;100826.09;;;31.19;40.80
77159;BME280;66129;45.890;13.714;2023-07-31T08:30:29;100818.41;;;31.69;39.47
77159;BME280;66129;45.890;13.714;2023-07-31T08:32:55;100819.16;;;31.57;39.84
77159;BME280;66129;45.890;13.714;2023-07-31T08:35:21;100829.88;;;31.56;40.33
77159;BME280;66129;45.890;13.714;2023-07-31T08:37:46;100820.19;;;31.42;39.71
77159;BME280;66129;45.890;13.714;2023-07-31T08:40:12;100812.38;;;31.13;39.99
77159;BME280;66129;45.890;13.714;2023-07-31T08:42:46;100813.53;;;30.95;41.13
77159;BME280;66129;45.890;13.714;2023-07-31T08:45:18;100822.41;;;31.22;41.52
77159;BME280;66129;45.890;13.714;2023-07-31T08:47:49;100825.38;;;31.17;40.52
77159;BME280;66129;45.890;13.714;2023-07-31T08:50:15;100813.63;;;30.66;42.03
77159;BME280;66129;45.890;13.714;2023-07-31T08:52:41;100815.53;;;30.77;41.72
77159;BME280;66129;45.890;13.714;2023-07-31T08:55:07;100813.78;;;31.04;41.08
77159;BME280;66129;45.890;13.714;2023-07-31T08:57:35;100811.00;;;31.07;41.21
77159;BME280;66129;45.890;13.714;2023-07-31T09:00:02;100807.34;;;31.22;41.83
77159;BME280;66129;45.890;13.714;2023-07-31T09:02:34;100805.31;;;30.85;42.01
77159;BME280;66129;45.890;13.714;2023-07-31T09:05:01;100810.63;;;30.85;40.78
77159;BME280;66129;45.890;13.714;2023-07-31T09:07:28;100801.34;;;31.06;41.56
77159;BME280;66129;45.890;13.714;2023-07-31T09:09:54;100807.47;;;31.21;41.05
77159;BME280;66129;45.890;13.714;2023-07-31T09:12:20;100806.69;;;31.19;41.26
77159;BME280;66129;45.890;13.714;2023-07-31T09:14:46;100807.63;;;31.04;40.19
77159;BME280;66129;45.890;13.714;2023-07-31T09:17:12;100808.41;;;31.20;41.60
77159;BME280;66129;45.890;13.714;2023-07-31T09:19:38;100815.28;;;31.22;41.70
77159;BME280;66129;45.890;13.714;2023-07-31T09:22:05;100808.16;;;30.82;42.67
77159;BME280;66129;45.890;13.714;2023-07-31T09:24:33;100809.94;;;30.40;41.97
77159;BME280;66129;45.890;13.714;2023-07-31T09:27:00;100818.13;;;30.36;43.57
77159;BME280;66129;45.890;13.714;2023-07-31T09:29:27;100805.94;;;30.33;44.10
77159;BME280;66129;45.890;13.714;2023-07-31T09:31:54;100800.69;;;30.04;44.45
77159;BME280;66129;45.890;13.714;2023-07-31T09:34:20;100801.91;;;29.98;45.11
77159;BME280;66129;45.890;13.714;2023-07-31T09:36:53;100797.72;;;29.65;45.69
77159;BME280;66129;45.890;13.714;2023-07-31T09:39:19;100810.00;;;29.66;45.80
77159;BME280;66129;45.890;13.714;2023-07-31T09:41:54;100801.50;;;29.46;46.54
77159;BME280;66129;45.890;13.714;2023-07-31T09:44:19;100797.22;;;29.28;46.46
77159;BME280;66129;45.890;13.714;2023-07-31T09:46:45;100807.81;;;29.43;46.70
77159;BME280;66129;45.890;13.714;2023-07-31T09:49:12;100809.28;;;29.78;47.25
77159;BME280;66129;45.890;13.714;2023-07-31T09:51:39;100811.44;;;30.01;46.12
77159;BME280;66129;45.890;13.714;2023-07-31T09:54:12;100797.72;;;30.24;45.55
77159;BME280;66129;45.890;13.714;2023-07-31T09:56:42;100799.31;;;30.12;44.54
77159;BME280;66129;45.890;13.714;2023-07-31T09:59:11;100810.44;;;30.17;46.02
77159;BME280;66129;45.890;13.714;2023-07-31T10:01:37;100806.91;;;30.03;45.31
77159;BME280;66129;45.890;13.714;2023-07-31T10:04:04;100802.69;;;30.71;44.79
77159;BME280;66129;45.890;13.714;2023-07-31T10:06:31;100797.50;;;31.51;42.11
77159;BME280;66129;45.890;13.714;2023-07-31T10:08:58;100786.66;;;31.41;42.79
77159;BME280;66129;45.890;13.714;2023-07-31T10:11:25;100785.47;;;31.59;42.12
77159;BME280;66129;45.890;13.714;2023-07-31T10:13:53;100792.47;;;31.60;42.57
77159;BME280;66129;45.890;13.714;2023-07-31T10:16:20;100788.59;;;31.52;42.56
77159;BME280;66129;45.890;13.714;2023-07-31T10:18:47;100778.00;;;31.52;42.90
77159;BME280;66129;45.890;13.714;2023-07-31T10:21:13;100778.00;;;31.52;43.19
77159;BME280;66129;45.890;13.714;2023-07-31T10:23:40;100774.16;;;31.43;42.73
77159;BME280;66129;45.890;13.714;2023-07-31T10:26:08;100776.19;;;31.52;42.37
77159;BME280;66129;45.890;13.714;2023-07-31T10:28:35;100781.69;;;31.63;41.12
77159;BME280;66129;45.890;13.714;2023-07-31T10:31:03;100783.31;;;31.52;41.67
77159;BME280;66129;45.890;13.714;2023-07-31T10:33:29;100781.13;;;31.32;42.61
77159;BME280;66129;45.890;13.714;2023-07-31T10:36:18;100794.41;;;31.18;42.37
77159;BME280;66129;45.890;13.714;2023-07-31T10:38:44;100791.81;;;31.30;42.50
77159;BME280;66129;45.890;13.714;2023-07-31T10:41:10;100777.97;;;31.39;42.88
77159;BME280;66129;45.890;13.714;2023-07-31T10:43:39;100787.31;;;31.71;42.57
77159;BME280;66129;45.890;13.714;2023-07-31T10:46:11;100784.19;;;31.91;42.27
77159;BME280;66129;45.890;13.714;2023-07-31T10:48:39;100787.63;;;32.43;42.47
77159;BME280;66129;45.890;13.714;2023-07-31T10:51:10;100775.72;;;32.61;40.50
77159;BME280;66129;45.890;13.714;2023-07-31T10:53:37;100784.25;;;32.78;40.29
77159;BME280;66129;45.890;13.714;2023-07-31T10:56:04;100780.44;;;33.05;40.77
77159;BME280;66129;45.890;13.714;2023-07-31T10:58:31;100778.09;;;32.65;39.20
77159;BME280;66129;45.890;13.714;2023-07-31T11:01:07;100770.72;;;32.56;41.28
77159;BME280;66129;45.890;13.714;2023-07-31T11:03:49;100774.56;;;32.40;40.97
77159;BME280;66129;45.890;13.714;2023-07-31T11:06:17;100770.13;;;32.65;40.66
77159;BME280;66129;45.890;13.714;2023-07-31T11:08:47;100776.78;;;32.46;39.58
77159;BME280;66129;45.890;13.714;2023-07-31T11:11:15;100774.78;;;32.24;40.24
77159;BME280;66129;45.890;13.714;2023-07-31T11:13:44;100768.88;;;31.94;40.34
77159;BME280;66129;45.890;13.714;2023-07-31T11:16:12;100787.88;;;31.76;41.88
77159;BME280;66129;45.890;13.714;2023-07-31T11:18:42;100770.91;;;31.91;40.05
77159;BME280;66129;45.890;13.714;2023-07-31T11:21:12;100779.81;;;31.78;41.56
77159;BME280;66129;45.890;13.714;2023-07-31T11:23:38;100774.50;;;31.51;42.75
77159;BME280;66129;45.890;13.714;2023-07-31T11:26:05;100771.72;;;31.79;41.41
77159;BME280;66129;45.890;13.714;2023-07-31T11:28:34;100770.78;;;31.80;41.13
77159;BME280;66129;45.890;13.714;2023-07-31T11:31:00;100769.44;;;31.99;39.79
77159;BME280;66129;45.890;13.714;2023-07-31T11:33:26;100762.97;;;31.91;39.80
77159;BME280;66129;45.890;13.714;2023-07-31T11:35:52;100768.56;;;31.74;41.02
77159;BME280;66129;45.890;13.714;2023-07-31T11:38:28;100759.56;;;32.01;40.82
77159;BME280;66129;45.890;13.714;2023-07-31T11:40:59;100763.00;;;31.65;40.04
77159;BME280;66129;45.890;13.714;2023-07-31T11:43:25;100742.84;;;31.36;40.42
77159;BME280;66129;45.890;13.714;2023-07-31T11:45:53;100754.03;;;31.14;41.13
77159;BME280;66129;45.890;13.714;2023-07-31T11:48:24;100744.47;;;31.12;42.33
77159;BME280;66129;45.890;13.714;2023-07-31T11:50:52;100741.84;;;31.24;41.42
77159;BME280;66129;45.890;13.714;2023-07-31T11:53:31;100736.72;;;31.35;41.41
77159;BME280;66129;45.890;13.714;2023-07-31T11:55:58;100732.16;;;31.37;42.48
77159;BME280;66129;45.890;13.714;2023-07-31T11:58:24;100720.97;;;31.46;40.66
77159;BME280;66129;45.890;13.714;2023-07-31T12:00:51;100734.50;;;31.68;40.15
77159;BME280;66129;45.890;13.714;2023-07-31T12:03:18;100727.72;;;31.11;42.09
77159;BME280;66129;45.890;13.714;2023-07-31T12:05:44;100716.63;;;31.19;40.96
77159;BME280;66129;45.890;13.714;2023-07-31T12:08:11;100707.28;;;30.99;41.64
77159;BME280;66129;45.890;13.714;2023-07-31T12:10:39;100699.69;;;31.34;40.91
77159;BME280;66129;45.890;13.714;2023-07-31T12:13:11;100696.97;;;31.35;39.44
77159;BME280;66129;45.890;13.714;2023-07-31T12:15:41;100704.31;;;31.57;37.87
77159;BME280;66129;45.890;13.714;2023-07-31T12:18:12;100685.97;;;31.54;39.46
77159;BME280;66129;45.890;13.714;2023-07-31T12:23:22;100684.31;;;32.02;39.52
77159;BME280;66129;45.890;13.714;2023-07-31T12:26:11;100678.00;;;32.17;39.36
77159;BME280;66129;45.890;13.714;2023-07-31T12:28:40;100671.59;;;31.95;38.48
77159;BME280;66129;45.890;13.714;2023-07-31T12:31:08;100664.41;;;31.72;37.72
77159;BME280;66129;45.890;13.714;2023-07-31T12:33:35;100673.75;;;31.51;37.95
77159;BME280;66129;45.890;13.714;2023-07-31T12:36:03;100663.78;;;31.42;37.58
77159;BME280;66129;45.890;13.714;2023-07-31T12:38:29;100658.13;;;31.22;40.19
77159;BME280;66129;45.890;13.714;2023-07-31T12:40:55;100662.44;;;30.96;40.67
77159;BME280;66129;45.890;13.714;2023-07-31T12:43:20;100659.72;;;30.98;40.40
77159;BME280;66129;45.890;13.714;2023-07-31T12:45:46;100662.34;;;30.71;40.91